Immagine casuale
Testata Regione Lazio ARSIAL SIARL

Ultima Misura Rilevata

Temperatura, Umidità, Pioggia, Pressione Radiazione Solare, Venti, Evapotraspirazione, ecc.
Temperature diurne e notturne Direzione vento Legenda
Prov Stazione Data TMin TMed TMax UMed Pioggia PMed
FR ALATRI Basciano 26/06/2017 18,8 26,8 37,4 62 0 1.015
FR ALVITO Az. Ist. S. Benedetto 26/06/2017 16,6 25,8 34,3 74 0,4 1.013
FR ANAGNI La Gloria 26/06/2017 16,2 25,7 35,6 65 0 1.012
FR ARPINO Vigne Piane 26/06/2017 19,3 25,4 33,7 73 0 1.013
FR BOVILLE ERNICA Sasso 26/06/2017 19 26,8 35,3 62 0 1.013
FR ESPERIA Modale 26/06/2017 17,5 25,7 36,4 70 0 1.015
FR PASTENA Acero 26/06/2017 15,7 24,9 33,5 73 0 1.016
FR PIGLIO Civitella 26/06/2017 16,9 25,3 35,5 65 0 1.020
FR PONTECORVO Melfi di Sotto 26/06/2017 18,1 26,2 35 72 0 ----
FR S. ELIA FIUMERAPIDO Portella 26/06/2017 19,5 26,5 35,3 65 0 1.013
FR S. GIORGIO A LIRI Porto 26/06/2017 18,3 26,5 34,8 71 0 1.016
FR SGURGOLA Campo Lungo 26/06/2017 16,2 26,1 35,4 64 0 ----
FR VALLECORSA Serbatoio comunale 26/06/2017 18,8 24,6 30,4 66 0 1.014
LT APRILIA Le Ferriere 26/06/2017 19,5 26,3 31,9 78 0 1.013
LT CISTERNA B.go Carso 26/06/2017 16,8 24,1 29,9 79 0 ----
LT CISTERNA Doganella di Ninfa 26/06/2017 18,1 26,1 34,6 68 0 1.012
LT CORI Portone 26/06/2017 19,6 27 33,8 75 0 1.012
LT FONDI Capratica 26/06/2017 19 24,9 30,5 82 0 1.014
LT FORMIA Loc. Gianola 26/06/2017 19,6 25,4 29,9 96 0 ----
LT ITRI Valle Quercia 26/06/2017 N.D. N.D. N.D. N.D. N.D. N.D.
LT MAENZA Casacotta 26/06/2017 19,2 26,1 32,9 68 0 1.017
LT MINTURNO Pulcherini 26/06/2017 21,5 25,8 30,9 80 0 1.013
LT PONTINIA Cotarda 26/06/2017 18,6 25,9 32,3 73 0 1.015
LT SABAUDIA Acquaviva 26/06/2017 18,4 24,1 30,4 80 0 1.014
LT SONNINO Frasso 26/06/2017 21,5 26,5 33,9 69 0 1.013
RI ACCUMOLI Terracino 26/06/2017 15,8 21,1 28,4 73 0 1.012
RI BORGOVELINO Ponte Basso 26/06/2017 14,2 24,6 36,2 61 0 1.014
RI CANTALUPO S. Francesco 26/06/2017 15,9 25,7 35,4 63 0 ----
RI CASTEL DI TORA Monte di Tora 26/06/2017 14,9 24 34,3 64 0 1.014
RI CASTELNUOVO FARFA C. Spadone 26/06/2017 18,3 27 36,5 62 0 ----
RI CONFIGNI Portella 26/06/2017 17,4 25,8 34,3 60 0 1.011
RI FARA SABINA Canneto 26/06/2017 20,4 28,4 38,8 56 0 1.017
RI FARA SABINA Sant'Andrea 26/06/2017 19,5 27 35,7 59 0 ----
RI MONTELEONE S. Prato Camino 26/06/2017 16,8 25,5 35 56 0 1.015
RI MONTOPOLI IN SABINA Colle Arcone 26/06/2017 18,6 26,5 35 70 0 ----
RI MONTOPOLI IN SABINA Villa Caprola 26/06/2017 19,3 28,3 37,5 72 0 ----
RI POGGIO CATINO Pastine 26/06/2017 18,4 26,3 35,3 62 0 ----
RI POGGIO NATIVO Casali 26/06/2017 18,7 25,7 33,8 67 0 ----
RI RIETI Piana di Rieti 26/06/2017 14 24,8 34,2 60 0 1.013
RI SCANDRIGLIA Ponticelli 26/06/2017 18,5 25,6 33,5 67 0 ----
RM AGOSTA La Cisterna 26/06/2017 15,6 24,7 37,3 71 0 1.013
RM BRACCIANO Prato Pianciano 26/06/2017 18,3 25,4 35 72 0 1.017
RM CANALE MONTERANO Monte Virginio 26/06/2017 16,6 24,7 35,1 68 0 1.016
RM CERVETERI Campo di Mare 26/06/2017 21,1 25,6 29,3 76 0 ----
RM CIVITELLA S.PAOLO Le Cese 26/06/2017 18,3 26,5 35,5 75 0 1.013
RM FIUMICINO Maccarese 26/06/2017 18,4 25,4 32,1 81 0 1.012
RM FIUMICINO Testa di Lepre 26/06/2017 20,3 26,3 32,9 75 0 ----
RM FRASCATI Prata Porci 26/06/2017 18,2 26,4 34,1 68 0 1.012
RM GENAZZANO Coop. La Sonnina 26/06/2017 18,3 26,4 33,9 59 0 1.013
RM GROTTAFERRATA Valle Marciana 26/06/2017 19,2 26 33,6 63 0 1.011
RM LICENZA Colle Franco 26/06/2017 15,4 24,4 34,7 62 0 1.014
RM MARCELLINA V. Campetella 26/06/2017 18,7 26,9 35,2 65 0 ----
RM MARINO Gotto d'Oro 26/06/2017 20 27,1 34 70 0 1.012
RM MONTECOMPATRI Colle Mattia 26/06/2017 18,9 27,6 35,6 60 0 1.012
RM MONTECOMPATRI Pantano Borghese 26/06/2017 17 26,4 35 67 N.D. 1.014
RM MONTELIBRETTI Bruciati 26/06/2017 17,4 27,4 37,4 59 0 ----
RM MONTEPORZIO Camaldoli 26/06/2017 17,3 24,8 32,4 80 0 1.011
RM MONTEROTONDO Grotta Marozza 26/06/2017 18,7 27,1 35,7 59 0 1.014
RM PALOMBARA Fonte Grande 26/06/2017 16,9 26,2 35,5 61 0 ----
RM ROMA Capocotta 26/06/2017 19 24,2 28,7 95 0,1 ----
RM ROMA Ponte di Nona 26/06/2017 19,7 27,3 34,4 67 0 1.012
RM ROMA Via Lanciani 38 26/06/2017 22,7 27,9 32,9 63 0 1.013
RM S. GREGORIO C. Faustiniano 26/06/2017 19,2 26,6 36,3 57 0 1.014
RM VELLETRI Cantina Sperimentale 26/06/2017 18,7 25,6 33,5 65 0 1.014
RM VELLETRI Prato Lungo 26/06/2017 18,8 25,3 31,3 68 0 ----
RM ZAGAROLO Santa Apollara 26/06/2017 18,7 24,7 30,8 68 0 ----
VT ACQUAPENDENTE Falconiera 26/06/2017 16,1 25,1 36,7 63 0 1.018
VT BAGNOREGIO Castell Cellesi 26/06/2017 18,4 25,6 33,9 63 0 ----
VT BASSANO R. Piano Mola 26/06/2017 N.D. N.D. N.D. N.D. N.D. 1.014
VT BLERA Puntoni 26/06/2017 18,9 25,8 32,7 69 0 1.011
VT BOLSENA Capone 26/06/2017 18,2 27,1 37,2 57 0 1.014
VT BOLSENA Rentica 26/06/2017 17,7 25,2 32,8 62 0 ----
VT CANINO Diga Timone 26/06/2017 18,7 25,8 33,5 69 0 1.015
VT CANINO Pianacce 26/06/2017 N.D. N.D. N.D. N.D. N.D. N.D.
VT CANINO San Valeriano 26/06/2017 20 26,3 34,5 76 0 ----
VT CELLENO Acquaforte 26/06/2017 16,3 25,2 33,7 66 0 ----
VT CORCHIANO Pantalone 26/06/2017 16,1 26,9 37,5 65 0 1.014
VT FARNESE Gressa 26/06/2017 17,9 24,5 31,1 67 0 ----
VT FARNESE Pian di Sala 26/06/2017 14,9 23,9 33,3 71 0 ----
VT GROTTE DI CASTRO Borghetto 26/06/2017 17,8 25 32,4 71 0 1.019
VT GROTTE DI CASTRO Purgatorio 26/06/2017 16,2 25 35,4 65 0 1.016
VT LATERA Centro Florovivaistico 26/06/2017 15,3 24,7 34,6 64 0 1.013
VT MONTALTO Le Murelle 26/06/2017 20,3 25,2 29,2 82 0 1.012
VT MONTALTO Pescia Romana 26/06/2017 22,2 27,2 32,3 91 0 1.008
VT MONTEFIASCONE Commenda 26/06/2017 18 25,6 34,4 68 0 ----
VT RONCIGLIONE Ponterotto 26/06/2017 17,7 25,5 33,7 60 0 ----
VT SORIANO CIMINO Pantane 26/06/2017 14,7 25,4 37,5 63 0 1.011
VT SORIANO CIMINO Poggio di Chia 26/06/2017 16 25,2 34,3 63 0 ----
VT TARQUINIA Portaccia 26/06/2017 20,6 25,9 30,5 78 0 ----
VT TUSCANIA Montebello 26/06/2017 19,2 24,9 30,9 72 0 ----
VT VETRALLA Marchionato 26/06/2017 18,8 25,6 32,4 80 0 ----
VT VITERBO Pisello 26/06/2017 18,5 25,2 32,8 68 0 ----
N.D. = Dati Non Disponibili
---- = Sensore non presente

Le misure esposte sono grezze, ovvero non sono state validate